Weimar, Texas
Current Conditions -  °F | °C
As of 8:35 PM on Wednesday 22 Oct 2014 (Local Time) from K66R Reporting Station
Clear Clear  
Wind Chill: 20°   Ceiling: Unl
Heat Index: 20°   Visibility: 10mi
Dew Point: 15°   Wind: 3mph
Humidity: 72%   Direction: 60°ENE
Pressure: 30.07"   Gusts: NA
Location:  29.7°N, 96.78°W
Report Text: K66R 230135Z AUTO 06003KT 10SM CLR 20/15 A3007 RMK AO2 T02000148
Loading
Personal Weather Stations






























Interactive Weather Map
Tropical Storm Tracking
New forecast layout! Learn more

10-Day Weather Forecast

Advertisements
Track Severe Weather on mobile